Time;durP1;ratioP1;P1;durP2;ratioP2;P2;SDS_P1;SDS_P2;PMS_P1;PMS_P2;Temp;Humidity;BMP_temperature;BMP_pressure;BME280_temperature;BME280_humidity;BME280_pressure;Samples;Min_cycle;Max_cycle;Signal;HPM_P1;HPM_P2
2021/09/03 00:00:25;;;;;;;5.30;2.95;;;;;;;12.38;71.31;101711.37;1773914;79;21289;-82
2021/09/03 00:02:53;;;;;;;3.12;2.65;;;;;;;12.38;71.42;101709.17;1773801;80;21023;-82
2021/09/03 00:05:20;;;;;;;4.67;2.62;;;;;;;12.37;71.45;101705.64;1774072;80;21744;-82
2021/09/03 00:07:47;;;;;;;3.90;2.42;;;;;;;12.35;71.48;101702.06;1774083;80;21501;-82
2021/09/03 00:10:17;;;;;;;3.20;2.30;;;;;;;12.34;71.58;101705.53;1774270;79;21043;-82
2021/09/03 00:12:44;;;;;;;4.95;2.77;;;;;;;12.33;71.60;101691.88;1774344;80;21047;-81
2021/09/03 00:15:12;;;;;;;3.02;2.72;;;;;;;12.33;71.66;101686.99;1774567;80;21039;-81
2021/09/03 00:17:39;;;;;;;4.05;2.30;;;;;;;12.32;71.82;101690.06;1774394;80;21291;-84
2021/09/03 00:20:08;;;;;;;3.15;2.67;;;;;;;12.32;71.86;101683.89;1774300;80;21070;-82
2021/09/03 00:22:34;;;;;;;3.27;2.60;;;;;;;12.31;71.96;101680.34;1774094;80;21118;-83
2021/09/03 00:25:01;;;;;;;8.10;2.72;;;;;;;12.30;72.06;101678.56;1774150;79;21786;-83
2021/09/03 00:27:28;;;;;;;2.92;2.52;;;;;;;12.33;72.24;101675.11;1774427;80;21595;-82
2021/09/03 00:29:54;;;;;;;5.87;3.30;;;;;;;12.34;72.24;101672.53;1774531;80;21739;-80
2021/09/03 00:32:21;;;;;;;4.72;2.80;;;;;;;12.37;72.27;101670.40;1774539;80;21093;-80
2021/09/03 00:34:48;;;;;;;4.25;2.95;;;;;;;12.36;72.35;101666.88;1774387;80;21074;-81
2021/09/03 00:37:15;;;;;;;3.62;2.62;;;;;;;12.37;72.39;101659.44;1774539;80;21016;-81
2021/09/03 00:39:42;;;;;;;4.42;3.02;;;;;;;12.38;72.45;101652.41;1774236;80;21085;-81
2021/09/03 00:42:11;;;;;;;6.60;3.17;;;;;;;12.38;72.52;101650.66;1774268;80;21697;-80
2021/09/03 00:44:40;;;;;;;5.08;2.55;;;;;;;12.38;72.58;101644.48;1773341;80;21117;-81
2021/09/03 00:47:07;;;;;;;3.50;2.70;;;;;;;12.37;72.65;101638.31;1774554;80;21098;-82
2021/09/03 00:49:34;;;;;;;6.80;3.12;;;;;;;12.37;72.72;101630.39;1774410;80;21032;-83
2021/09/03 00:52:03;;;;;;;3.77;3.10;;;;;;;12.38;72.76;101626.89;1774449;80;21557;-83
2021/09/03 00:54:29;;;;;;;4.50;2.92;;;;;;;12.39;72.83;101631.77;1774365;79;21756;-83
2021/09/03 00:56:56;;;;;;;4.83;3.27;;;;;;;12.40;72.89;101630.91;1775686;80;21027;-82
2021/09/03 00:59:23;;;;;;;4.65;3.05;;;;;;;12.38;72.94;101620.72;1777136;80;21054;-82
2021/09/03 01:01:49;;;;;;;4.62;3.10;;;;;;;12.36;73.03;101625.95;1777335;79;21070;-81
2021/09/03 01:04:16;;;;;;;5.33;3.67;;;;;;;12.36;73.18;101627.70;1777325;80;21055;-81
2021/09/03 01:06:43;;;;;;;4.47;3.65;;;;;;;12.37;73.31;101621.55;1777417;80;22558;-81
2021/09/03 01:09:09;;;;;;;6.22;3.60;;;;;;;12.38;73.42;101622.04;1751132;80;21022;-81
2021/09/03 01:11:36;;;;;;;5.60;3.42;;;;;;;12.39;73.46;101619.89;1777280;80;21011;-81
2021/09/03 01:14:03;;;;;;;5.22;3.50;;;;;;;12.40;73.58;101616.37;1777322;80;21067;-81
2021/09/03 01:16:29;;;;;;;4.67;3.55;;;;;;;12.40;73.70;101611.98;1777463;80;21054;-81
2021/09/03 01:18:56;;;;;;;7.53;3.90;;;;;;;12.43;73.85;101606.81;1777531;80;21742;-81
2021/09/03 01:21:23;;;;;;;4.50;3.30;;;;;;;12.45;73.93;101608.19;1777393;80;21034;-82
2021/09/03 01:23:49;;;;;;;5.87;4.12;;;;;;;12.47;74.06;101599.89;1777399;80;21090;-82
2021/09/03 01:26:16;;;;;;;6.92;3.77;;;;;;;12.50;74.25;101601.71;1777465;80;20995;-82
2021/09/03 01:28:43;;;;;;;5.15;4.03;;;;;;;12.53;74.45;101600.50;1777617;80;21070;-83
2021/09/03 01:31:10;;;;;;;6.08;4.40;;;;;;;12.56;74.51;101594.89;1704590;80;21765;-83
2021/09/03 01:33:37;;;;;;;6.50;4.40;;;;;;;12.58;74.56;101584.38;1777525;80;21023;-82
2021/09/03 01:36:04;;;;;;;7.35;4.28;;;;;;;12.61;74.67;101580.48;1777494;80;21109;-82
2021/09/03 01:38:30;;;;;;;5.35;4.15;;;;;;;12.61;74.70;101569.52;1777249;80;21114;-82
2021/09/03 01:40:57;;;;;;;6.83;4.22;;;;;;;12.63;74.75;101573.10;1777367;80;21011;-82
2021/09/03 01:43:23;;;;;;;7.45;4.53;;;;;;;12.63;74.84;101574.42;1777208;80;21803;-82
2021/09/03 01:45:50;;;;;;;5.75;4.30;;;;;;;12.63;74.89;101568.22;1777348;80;22032;-82
2021/09/03 01:48:17;;;;;;;6.37;4.75;;;;;;;12.62;75.07;101562.48;1777349;80;21066;-82
2021/09/03 01:50:44;;;;;;;6.65;4.65;;;;;;;12.61;75.20;101553.67;1777386;80;21082;-82
2021/09/03 01:53:10;;;;;;;10.40;5.17;;;;;;;12.63;75.39;101555.02;1777398;80;20991;-83
2021/09/03 01:55:37;;;;;;;6.92;5.22;;;;;;;12.65;75.61;101557.30;1777351;80;23193;-81
2021/09/03 01:58:03;;;;;;;8.30;5.20;;;;;;;12.67;75.69;101550.72;1774601;80;21042;-81
2021/09/03 02:00:30;;;;;;;14.13;5.65;;;;;;;12.68;75.88;101553.41;1773870;80;21004;-80
2021/09/03 02:02:57;;;;;;;8.95;5.53;;;;;;;12.68;75.99;101549.45;1774174;80;21536;-81
2021/09/03 02:05:24;;;;;;;9.05;5.47;;;;;;;12.69;76.21;101543.33;1774096;80;21055;-81
2021/09/03 02:07:51;;;;;;;10.48;5.90;;;;;;;12.72;76.40;101550.00;1774178;80;21748;-81
2021/09/03 02:10:17;;;;;;;10.58;5.60;;;;;;;12.73;76.51;101540.35;1774377;80;21043;-81
2021/09/03 02:12:44;;;;;;;11.22;5.65;;;;;;;12.75;76.61;101538.21;1774290;80;21059;-83
2021/09/03 02:15:10;;;;;;;9.65;6.12;;;;;;;12.78;76.73;101533.43;1774195;80;21015;-83
2021/09/03 02:17:37;;;;;;;13.10;7.05;;;;;;;12.80;76.85;101527.77;1774294;80;21050;-82
2021/09/03 02:20:06;;;;;;;9.35;6.47;;;;;;;12.81;76.95;101535.73;1774361;79;22485;-83
2021/09/03 02:22:32;;;;;;;13.38;6.83;;;;;;;12.83;77.00;101530.50;1774345;80;21074;-84
2021/09/03 02:24:59;;;;;;;9.23;7.05;;;;;;;12.84;77.08;101521.30;1774313;80;21066;-84
2021/09/03 02:27:26;;;;;;;7.78;5.47;;;;;;;12.85;77.10;101515.58;1774365;80;21199;-83
2021/09/03 02:29:53;;;;;;;10.45;6.65;;;;;;;12.86;77.18;101523.08;1774528;80;21086;-84
2021/09/03 02:32:20;;;;;;;11.15;7.40;;;;;;;12.86;77.31;101518.71;1774361;80;21884;-83
2021/09/03 02:34:47;;;;;;;10.72;6.78;;;;;;;12.87;77.39;101511.67;1774182;80;21426;-81
2021/09/03 02:37:15;;;;;;;10.32;6.55;;;;;;;12.86;77.46;101509.47;1774404;80;21587;-82
2021/09/03 02:39:42;;;;;;;13.70;7.25;;;;;;;12.88;77.55;101506.88;1774225;80;21122;-81
2021/09/03 02:42:08;;;;;;;13.18;8.13;;;;;;;12.88;77.66;101498.51;1774147;80;21058;-81
2021/09/03 02:44:36;;;;;;;11.60;7.10;;;;;;;12.90;77.80;101499.44;1774023;79;50802;-81
2021/09/03 02:47:03;;;;;;;11.35;7.58;;;;;;;12.88;77.92;101495.87;1773929;80;21055;-81
2021/09/03 02:49:30;;;;;;;11.65;7.37;;;;;;;12.89;78.02;101487.50;1774094;80;21039;-81
2021/09/03 02:51:57;;;;;;;15.50;8.33;;;;;;;12.87;78.06;101484.81;1774159;80;21059;-81
2021/09/03 02:54:23;;;;;;;13.72;8.35;;;;;;;12.87;78.31;101483.49;1774259;80;21123;-81
2021/09/03 02:56:50;;;;;;;13.25;8.55;;;;;;;12.86;78.45;101472.47;1774525;80;21737;-81
2021/09/03 02:59:17;;;;;;;15.25;8.70;;;;;;;12.87;78.60;101475.56;1777100;80;20996;-81
2021/09/03 03:01:44;;;;;;;15.38;9.15;;;;;;;12.87;78.61;101473.36;1777300;80;21046;-81
2021/09/03 03:04:10;;;;;;;12.47;9.00;;;;;;;12.86;78.69;101471.16;1777493;79;21070;-81
2021/09/03 03:06:37;;;;;;;14.15;8.78;;;;;;;12.85;78.67;101466.70;1777374;80;21082;-81
2021/09/03 03:09:04;;;;;;;14.35;8.53;;;;;;;12.83;78.77;101461.81;1777061;80;21742;-81
2021/09/03 03:11:31;;;;;;;14.75;8.65;;;;;;;12.81;78.86;101461.77;1776983;79;21523;-81
2021/09/03 03:14:10;;;;;;;16.62;8.23;;;;;;;12.82;78.93;101464.00;1777246;80;21015;-81
2021/09/03 03:16:32;;;;;;;13.38;8.48;;;;;;;12.81;78.99;101456.91;1776265;80;21087;-81
2021/09/03 03:18:59;;;;;;;18.98;9.23;;;;;;;12.79;79.00;101454.22;1777411;80;21003;-81
2021/09/03 03:21:26;;;;;;;16.45;7.92;;;;;;;12.78;79.02;101451.13;1777253;80;21831;-82
2021/09/03 03:23:52;;;;;;;13.58;8.58;;;;;;;12.76;79.07;101438.72;1777055;80;21081;-81
2021/09/03 03:26:19;;;;;;;14.60;9.15;;;;;;;12.73;79.07;101439.54;1776981;80;21038;-80
2021/09/03 03:28:46;;;;;;;19.42;8.80;;;;;;;12.72;79.16;101437.73;1776731;79;21114;-81
2021/09/03 03:31:13;;;;;;;13.95;8.35;;;;;;;12.71;79.15;101427.16;1776965;80;21555;-81
2021/09/03 03:33:39;;;;;;;15.38;7.92;;;;;;;12.69;79.15;101422.23;1777022;80;21731;-80
2021/09/03 03:36:06;;;;;;;14.90;9.10;;;;;;;12.67;79.21;101419.57;1777107;80;21109;-80
2021/09/03 03:38:33;;;;;;;14.35;8.50;;;;;;;12.64;79.25;101419.04;1777430;80;21137;-81
2021/09/03 03:41:01;;;;;;;14.53;9.08;;;;;;;12.63;79.35;101407.11;1776195;80;21074;-81
2021/09/03 03:43:29;;;;;;;16.07;7.95;;;;;;;12.62;79.40;101405.34;1777005;80;21531;-80
2021/09/03 03:45:57;;;;;;;19.45;8.85;;;;;;;12.61;79.43;101403.53;1771565;79;21110;-82
2021/09/03 03:48:26;;;;;;;17.82;9.00;;;;;;;12.61;79.48;101402.21;1767997;80;21163;-82
2021/09/03 03:50:53;;;;;;;12.43;7.67;;;;;;;12.60;79.56;101400.44;1763994;81;21081;-81
2021/09/03 03:53:39;;;;;;;13.55;8.55;;;;;;;12.59;79.57;101396.92;1766198;80;21141;-82
2021/09/03 03:55:56;;;;;;;15.18;8.90;;;;;;;12.58;79.69;101393.80;1758487;80;21056;-82
2021/09/03 03:58:23;;;;;;;16.67;8.48;;;;;;;12.57;79.71;101382.75;1762214;81;21868;-82
2021/09/03 04:00:50;;;;;;;14.30;8.45;;;;;;;12.55;79.73;101381.81;1787991;78;21080;-81
2021/09/03 04:03:16;;;;;;;12.37;8.30;;;;;;;12.54;79.79;101380.48;1761581;81;21113;-84
2021/09/03 04:05:43;;;;;;;14.50;8.63;;;;;;;12.53;79.88;101370.31;1788108;79;21160;-83
2021/09/03 04:08:10;;;;;;;14.68;8.18;;;;;;;12.56;79.95;101361.61;1761552;81;21657;-84
2021/09/03 04:10:36;;;;;;;14.05;8.58;;;;;;;12.58;80.01;101362.10;1788275;80;22546;-82
2021/09/03 04:13:03;;;;;;;12.35;8.00;;;;;;;12.60;80.01;101361.71;1761525;81;21061;-82
2021/09/03 04:15:30;;;;;;;20.82;8.73;;;;;;;12.63;80.06;101355.20;1788231;79;21115;-82
2021/09/03 04:17:56;;;;;;;16.67;8.75;;;;;;;12.69;80.09;101350.50;1761607;81;21085;-83
2021/09/03 04:20:23;;;;;;;13.65;9.45;;;;;;;12.75;80.06;101353.73;1788330;79;21010;-83
2021/09/03 04:22:50;;;;;;;15.60;8.90;;;;;;;12.79;80.08;101345.91;1761674;81;21722;-82
2021/09/03 04:25:16;;;;;;;14.68;8.55;;;;;;;12.85;80.02;101339.89;1788226;80;21507;-82
2021/09/03 04:27:43;;;;;;;18.05;9.60;;;;;;;12.95;80.05;101341.00;1761564;81;21073;-82
2021/09/03 04:30:11;;;;;;;13.32;8.13;;;;;;;13.05;80.06;101335.11;1788141;80;21065;-81
2021/09/03 04:32:39;;;;;;;13.00;7.87;;;;;;;13.18;80.02;101331.89;1761565;81;21112;-82
2021/09/03 04:35:07;;;;;;;14.78;8.65;;;;;;;13.34;80.02;101329.20;1788218;78;21742;-82
2021/09/03 04:37:41;;;;;;;12.93;8.00;;;;;;;13.50;79.89;101318.55;1756815;81;21065;-82
2021/09/03 04:40:09;;;;;;;14.13;7.85;;;;;;;13.70;79.93;101315.03;1758848;81;21696;-81
2021/09/03 04:42:36;;;;;;;11.97;7.12;;;;;;;14.17;80.34;101315.50;1788151;78;21492;-82
2021/09/03 04:45:03;;;;;;;12.63;7.40;;;;;;;14.84;80.17;101314.53;1761590;81;21109;-87
2021/09/03 04:47:29;;;;;;;13.72;7.42;;;;;;;15.09;78.58;101317.56;1788099;79;21775;-88
2021/09/03 04:49:56;;;;;;;16.15;10.60;;;;;;;15.46;78.67;101308.84;1761774;81;21022;-86
2021/09/03 04:52:23;;;;;;;12.70;8.03;;;;;;;16.29;78.92;101301.48;1788735;80;21025;-91
2021/09/03 04:54:49;;;;;;;11.22;7.10;;;;;;;17.22;78.06;101294.30;1762016;81;21351;-89
2021/09/03 04:57:16;;;;;;;14.75;8.25;;;;;;;17.61;75.75;101294.08;1788790;79;21553;-88
2021/09/03 04:59:43;;;;;;;13.25;8.23;;;;;;;17.43;74.14;101297.52;1818906;78;21784;-89
2021/09/03 05:02:09;;;;;;;9.45;6.42;;;;;;;17.16;73.56;101299.14;1818996;78;21085;-87
2021/09/03 05:04:36;;;;;;;13.25;8.65;;;;;;;16.90;73.35;101304.27;1819519;78;21660;-87
2021/09/03 05:07:03;;;;;;;18.62;12.20;;;;;;;16.67;73.16;101300.06;1819539;78;21050;-86
2021/09/03 05:09:30;;;;;;;11.85;7.92;;;;;;;16.57;73.35;101301.73;1819652;77;21030;-86
2021/09/03 05:11:56;;;;;;;11.15;7.25;;;;;;;16.62;73.39;101299.13;1819621;78;21714;-86
2021/09/03 05:14:23;;;;;;;10.90;6.87;;;;;;;16.74;73.50;101288.58;1819354;77;21261;-86
2021/09/03 05:16:50;;;;;;;13.70;6.95;;;;;;;17.03;73.46;101285.31;1819294;78;21579;-82
2021/09/03 05:19:16;;;;;;;10.32;7.12;;;;;;;17.09;72.63;101281.36;1818975;78;21022;-83
2021/09/03 05:21:43;;;;;;;11.08;6.80;;;;;;;17.03;72.14;101280.87;1794797;78;21094;-84
2021/09/03 05:24:10;;;;;;;13.25;6.55;;;;;;;16.93;72.09;101264.42;1785013;80;21747;-85
2021/09/03 05:26:36;;;;;;;15.40;8.08;;;;;;;16.94;72.12;101268.84;1780978;80;21062;-85
2021/09/03 05:29:03;;;;;;;12.13;6.70;;;;;;;16.97;71.88;101256.91;1781133;80;21686;-85
2021/09/03 05:31:30;;;;;;;9.80;6.97;;;;;;;16.93;71.77;101255.11;1780873;80;21316;-85
2021/09/03 05:33:56;;;;;;;12.23;7.53;;;;;;;16.88;71.71;101259.05;1780974;80;21050;-85
2021/09/03 05:36:26;;;;;;;10.32;6.40;;;;;;;16.84;71.79;101257.25;1777796;80;21748;-84
2021/09/03 05:38:53;;;;;;;9.60;6.25;;;;;;;16.88;71.88;101259.05;1748967;82;21554;-84
2021/09/03 05:41:20;;;;;;;11.78;6.92;;;;;;;16.93;71.80;101261.77;1748693;81;21230;-84
2021/09/03 05:43:47;;;;;;;11.93;6.60;;;;;;;16.97;71.75;101258.66;1748938;81;21097;-84
2021/09/03 05:46:13;;;;;;;13.22;7.55;;;;;;;16.98;71.59;101249.36;1748771;81;21383;-84
2021/09/03 05:48:40;;;;;;;16.12;9.28;;;;;;;16.96;71.60;101254.23;1748707;81;21725;-84
2021/09/03 05:51:07;;;;;;;14.63;9.45;;;;;;;16.95;71.54;101253.35;1748827;81;21648;-84
2021/09/03 05:53:33;;;;;;;12.13;7.28;;;;;;;16.93;71.52;101246.22;1749491;81;21073;-84
2021/09/03 05:56:00;;;;;;;11.70;8.03;;;;;;;16.89;71.54;101234.67;1750241;81;21148;-84
2021/09/03 05:58:27;;;;;;;11.57;6.55;;;;;;;16.88;71.64;101244.42;1749582;81;21039;-84
2021/09/03 06:00:54;;;;;;;12.85;6.33;;;;;;;16.88;71.58;101235.12;1749428;82;21828;-86
2021/09/03 06:03:21;;;;;;;14.87;10.00;;;;;;;16.87;71.59;101236.44;1749443;82;21109;-84
2021/09/03 06:05:47;;;;;;;11.50;7.22;;;;;;;16.86;71.58;101230.23;1749289;82;21631;-84
2021/09/03 06:08:14;;;;;;;11.53;6.95;;;;;;;16.86;71.64;101216.94;1749239;82;21090;-84
2021/09/03 06:10:41;;;;;;;11.73;7.08;;;;;;;16.89;71.75;101216.97;1749341;82;21125;-84
2021/09/03 06:13:07;;;;;;;13.65;6.42;;;;;;;16.93;71.72;101207.25;1749324;82;22593;-86
2021/09/03 06:15:34;;;;;;;10.45;6.28;;;;;;;16.99;71.78;101213.92;1749051;82;21054;-85
2021/09/03 06:18:01;;;;;;;13.45;6.80;;;;;;;17.05;71.76;101210.41;1749062;82;21117;-86
2021/09/03 06:20:28;;;;;;;11.22;6.28;;;;;;;17.11;71.77;101213.09;1748854;82;21694;-86
2021/09/03 06:22:54;;;;;;;10.82;6.28;;;;;;;17.19;71.77;101200.74;1749164;82;21085;-84
2021/09/03 06:25:21;;;;;;;17.73;6.20;;;;;;;17.24;71.56;101193.66;1749380;82;21845;-84
2021/09/03 06:27:48;;;;;;;14.98;7.00;;;;;;;17.28;71.48;101193.23;1749386;82;21074;-84
2021/09/03 06:30:16;;;;;;;13.30;6.78;;;;;;;17.32;71.27;101195.46;1749223;82;21584;-84
2021/09/03 06:32:42;;;;;;;12.53;7.30;;;;;;;17.32;71.23;101188.81;1749156;82;21066;-84
2021/09/03 06:35:10;;;;;;;9.25;6.22;;;;;;;17.34;71.11;101191.03;1749215;82;21215;-83
2021/09/03 06:37:36;;;;;;;14.58;6.35;;;;;;;17.37;71.03;101188.40;1749328;81;21749;-84
2021/09/03 06:40:04;;;;;;;20.02;6.08;;;;;;;17.41;70.94;101183.53;1749258;82;21522;-84
2021/09/03 06:42:32;;;;;;;11.48;5.95;;;;;;;17.45;70.80;101183.53;1749306;82;21658;-83
2021/09/03 06:44:59;;;;;;;8.65;5.78;;;;;;;17.51;70.60;101173.80;1749345;82;21086;-83
2021/09/03 06:47:27;;;;;;;11.12;5.67;;;;;;;17.54;70.61;101180.02;1749440;82;21137;-83
2021/09/03 06:49:54;;;;;;;11.75;5.90;;;;;;;17.59;70.54;101174.28;1749007;82;22413;-86
2021/09/03 06:52:28;;;;;;;10.75;5.58;;;;;;;17.64;70.33;101173.86;1749499;82;21516;-86
2021/09/03 06:54:49;;;;;;;10.65;6.30;;;;;;;17.71;70.13;101168.54;1748466;82;21113;-86
2021/09/03 06:57:16;;;;;;;11.05;6.10;;;;;;;17.77;69.99;101174.75;1749445;82;21217;-87
2021/09/03 06:59:43;;;;;;;9.53;5.97;;;;;;;17.81;69.79;101175.23;1747018;81;21125;-85
2021/09/03 07:02:12;;;;;;;12.23;5.87;;;;;;;17.86;69.59;101175.25;1746631;82;21809;-85
2021/09/03 07:04:38;;;;;;;10.90;5.45;;;;;;;17.91;69.44;101183.27;1746754;82;21082;-86
2021/09/03 07:07:05;;;;;;;9.15;5.75;;;;;;;17.94;69.22;101174.81;1746771;82;21133;-86
2021/09/03 07:09:31;;;;;;;9.48;5.35;;;;;;;17.97;69.11;101173.95;1746642;82;21066;-86
2021/09/03 07:11:58;;;;;;;9.70;5.17;;;;;;;18.03;69.17;101167.29;1746627;82;21046;-86
2021/09/03 07:14:25;;;;;;;11.65;5.87;;;;;;;18.08;68.84;101168.19;1747092;81;21641;-86
2021/09/03 07:16:51;;;;;;;15.93;8.30;;;;;;;18.13;68.69;101165.09;1746979;82;21602;-86
2021/09/03 07:19:19;;;;;;;23.50;12.82;;;;;;;18.15;68.47;101159.32;1747089;82;21120;-86
2021/09/03 07:21:46;;;;;;;12.23;6.65;;;;;;;18.21;68.36;101173.09;1746936;82;21043;-86
2021/09/03 07:24:13;;;;;;;12.55;7.62;;;;;;;18.24;68.26;101157.08;1746893;81;21082;-86
2021/09/03 07:26:40;;;;;;;10.60;6.67;;;;;;;18.28;68.21;101165.51;1746570;82;21821;-86
2021/09/03 07:29:07;;;;;;;11.38;7.12;;;;;;;18.31;68.09;101156.19;1746691;82;21007;-85
2021/09/03 07:31:33;;;;;;;11.08;7.05;;;;;;;18.34;67.96;101168.62;1746753;82;21083;-86
2021/09/03 07:34:01;;;;;;;9.83;5.95;;;;;;;18.35;67.88;101165.08;1746842;82;21019;-86
2021/09/03 07:36:27;;;;;;;9.18;6.40;;;;;;;18.36;67.65;101157.55;1746908;81;21082;-86
2021/09/03 07:38:54;;;;;;;11.38;6.33;;;;;;;18.38;67.57;101160.64;1747018;82;21737;-86
2021/09/03 07:41:23;;;;;;;14.10;5.55;;;;;;;18.44;67.60;101166.41;1747080;82;21015;-86
2021/09/03 07:43:50;;;;;;;7.90;5.67;;;;;;;18.48;67.35;101159.30;1746985;81;21105;-86
2021/09/03 07:46:17;;;;;;;8.35;5.95;;;;;;;18.57;67.07;101157.95;1747048;82;21069;-86
2021/09/03 07:48:43;;;;;;;9.15;5.92;;;;;;;18.59;66.81;101166.84;1747210;82;21544;-86
2021/09/03 07:51:10;;;;;;;10.32;6.12;;;;;;;18.60;66.63;101167.27;1747216;82;22577;-86
2021/09/03 07:53:37;;;;;;;12.33;6.08;;;;;;;18.62;66.40;101173.06;1746961;82;21083;-86
2021/09/03 07:56:04;;;;;;;11.88;6.10;;;;;;;18.64;66.33;101169.06;1746570;82;21051;-84
2021/09/03 07:58:31;;;;;;;8.00;5.92;;;;;;;18.69;66.24;101169.92;1746945;81;21638;-84
2021/09/03 08:01:00;;;;;;;9.55;5.90;;;;;;;18.73;66.02;101171.72;1749166;82;21141;-84
2021/09/03 08:03:27;;;;;;;9.60;6.70;;;;;;;18.78;65.96;101171.69;1749735;82;21760;-84
2021/09/03 08:05:56;;;;;;;11.15;6.25;;;;;;;18.83;65.54;101171.28;1723202;82;21081;-84
2021/09/03 08:08:22;;;;;;;8.98;5.58;;;;;;;18.81;65.34;101168.61;1749524;82;21073;-84
2021/09/03 08:10:49;;;;;;;10.65;6.37;;;;;;;18.82;65.23;101172.16;1749422;81;21094;-84
2021/09/03 08:13:16;;;;;;;8.93;5.72;;;;;;;18.81;65.11;101175.73;1749385;82;21536;-84
2021/09/03 08:15:43;;;;;;;9.93;6.35;;;;;;;18.83;65.31;101180.16;1749443;82;21690;-84
2021/09/03 08:18:09;;;;;;;11.25;6.08;;;;;;;18.86;65.18;101190.38;1749500;81;21623;-84
2021/09/03 08:20:36;;;;;;;13.43;6.33;;;;;;;18.86;65.26;101191.25;1749484;82;21074;-84
2021/09/03 08:23:03;;;;;;;10.93;6.97;;;;;;;18.97;65.41;101192.57;1749400;82;21371;-84
2021/09/03 08:25:30;;;;;;;17.45;7.42;;;;;;;19.07;64.83;101191.67;1749537;82;21097;-84
2021/09/03 08:27:56;;;;;;;21.02;8.05;;;;;;;19.06;64.38;101188.55;1749509;82;21752;-84
2021/09/03 08:30:23;;;;;;;12.00;7.72;;;;;;;18.94;64.34;101192.56;1749495;82;21003;-84
2021/09/03 08:32:50;;;;;;;12.85;7.70;;;;;;;18.97;64.57;101200.58;1749315;82;21090;-84
2021/09/03 08:35:16;;;;;;;16.25;9.35;;;;;;;18.94;64.33;101196.14;1749393;82;21114;-84
2021/09/03 08:37:43;;;;;;;12.07;8.08;;;;;;;18.88;64.29;101181.47;1749541;82;21093;-84
2021/09/03 08:40:11;;;;;;;11.63;8.98;;;;;;;18.82;64.32;101193.49;1749428;82;21759;-84
2021/09/03 08:42:38;;;;;;;15.18;7.92;;;;;;;18.80;64.62;101184.16;1749337;82;21114;-84
2021/09/03 08:45:07;;;;;;;12.73;7.42;;;;;;;19.00;64.88;101201.45;1749630;82;21042;-84
2021/09/03 08:47:34;;;;;;;12.30;8.10;;;;;;;19.22;64.87;101194.73;1749507;81;21638;-84
2021/09/03 08:50:01;;;;;;;15.38;9.03;;;;;;;19.51;64.78;101191.92;1724451;82;21036;-86
2021/09/03 08:52:27;;;;;;;12.25;8.25;;;;;;;19.80;64.41;101194.91;1749978;81;21712;-86
2021/09/03 08:54:54;;;;;;;16.40;7.95;;;;;;;20.06;64.10;101201.42;1749755;81;21089;-84
2021/09/03 08:57:21;;;;;;;12.30;8.23;;;;;;;20.18;63.50;101197.80;1749672;82;21003;-84
2021/09/03 08:59:47;;;;;;;13.68;8.80;;;;;;;20.31;63.46;101200.81;1761064;80;21078;-86
2021/09/03 09:02:20;;;;;;;11.43;8.28;;;;;;;20.32;62.86;101209.70;1780354;80;21090;-85
2021/09/03 09:04:52;;;;;;;11.83;8.15;;;;;;;20.20;62.56;101210.70;1780440;80;21752;-85
2021/09/03 09:07:19;;;;;;;17.67;8.40;;;;;;;20.19;62.88;101200.89;1780572;80;21122;-86
2021/09/03 09:09:51;;;;;;;10.20;8.08;;;;;;;20.27;62.71;101207.08;1780416;80;21564;-86
2021/09/03 09:12:17;;;;;;;14.63;10.13;;;;;;;20.38;62.78;101212.31;1780345;80;21062;-86
2021/09/03 09:15:06;;;;;;;14.18;10.88;;;;;;;20.42;62.72;101202.48;1780710;80;21105;-86
2021/09/03 09:17:42;;;;;;;14.20;9.23;;;;;;;20.57;62.77;101218.39;1780730;80;21739;-86
2021/09/03 09:20:11;;;;;;;17.95;8.88;;;;;;;20.88;62.44;101210.13;1780580;80;21070;-86
2021/09/03 09:23:03;;;;;;;15.00;8.13;;;;;;;21.08;62.12;101213.48;1780759;80;21066;-87
2021/09/03 09:25:35;;;;;;;13.13;8.30;;;;;;;21.24;61.83;101210.16;1780722;80;21524;-86
2021/09/03 09:28:20;;;;;;;13.05;8.38;;;;;;;21.34;61.45;101217.20;1780874;80;21592;-86
2021/09/03 09:30:47;;;;;;;15.50;8.90;;;;;;;21.41;61.26;101214.44;1780488;80;21853;-86
2021/09/03 09:33:18;;;;;;;15.45;8.90;;;;;;;21.52;61.03;101207.18;1780688;80;21105;-86
2021/09/03 09:35:54;;;;;;;14.40;9.98;;;;;;;21.58;60.84;101213.79;1780903;80;21065;-86
2021/09/03 09:38:27;;;;;;;16.60;8.73;;;;;;;21.61;60.62;101215.56;1780690;80;21603;-86
2021/09/03 09:40:59;;;;;;;14.58;9.83;;;;;;;21.45;60.18;101217.53;1780506;80;21654;-84
2021/09/03 09:43:31;;;;;;;18.77;12.65;;;;;;;21.25;60.18;101219.10;1780256;80;21760;-84
2021/09/03 09:46:19;;;;;;;16.02;11.38;;;;;;;21.07;60.21;101218.84;1780326;80;21058;-84
2021/09/03 09:49:02;;;;;;;13.55;9.58;;;;;;;20.95;60.40;101222.55;1780215;80;21066;-85
2021/09/03 09:51:37;;;;;;;;;;;;;;;20.90;60.52;101217.23;1783011;80;21098;-85
2021/09/03 09:54:15;;;;;;;13.62;8.00;;;;;;;20.89;60.57;101222.59;1780665;80;20183;-86
2021/09/03 09:56:55;;;;;;;14.23;7.87;;;;;;;20.76;60.58;101221.84;1780614;80;21791;-85
2021/09/03 09:59:24;;;;;;;17.57;8.73;;;;;;;20.62;60.67;101229.98;1779275;79;21042;-85
2021/09/03 10:01:54;;;;;;;11.55;8.90;;;;;;;20.56;60.95;101226.00;1777403;80;21081;-86
2021/09/03 10:04:24;;;;;;;13.80;8.78;;;;;;;20.67;61.13;101239.32;1777758;80;21040;-85
2021/09/03 10:06:52;;;;;;;14.68;8.30;;;;;;;20.74;61.07;101236.57;1777302;80;21019;-85
2021/09/03 10:09:26;;;;;;;14.40;7.97;;;;;;;20.82;60.94;101236.95;1777960;80;21743;-85
2021/09/03 10:11:54;;;;;;;12.68;8.43;;;;;;;20.89;61.02;101231.53;1777710;80;21082;-85
2021/09/03 10:14:25;;;;;;;11.85;8.70;;;;;;;21.02;61.02;101232.30;1777660;80;21015;-86
2021/09/03 10:16:51;;;;;;;13.35;9.38;;;;;;;21.11;60.73;101229.48;1777614;80;21082;-86
2021/09/03 10:19:28;;;;;;;12.30;7.95;;;;;;;21.09;60.63;101219.71;1777611;80;21027;-84
2021/09/03 10:22:11;;;;;;;19.17;10.55;;;;;;;21.07;60.64;101229.09;1777404;80;22583;-83
2021/09/03 10:24:38;;;;;;;16.05;8.65;;;;;;;21.01;60.46;101230.97;1777318;80;21229;-83
2021/09/03 10:27:07;;;;;;;14.73;8.90;;;;;;;20.88;60.46;101229.73;1777300;80;21077;-83
2021/09/03 10:29:41;;;;;;;14.55;8.28;;;;;;;20.75;60.47;101230.77;1777357;80;21172;-83
2021/09/03 10:32:10;;;;;;;;;;;;;;;20.56;60.42;101224.66;1779968;80;21306;-83
2021/09/03 10:34:50;;;;;;;16.55;9.05;;;;;;;20.42;60.82;101233.23;1777182;80;21920;-83
2021/09/03 10:37:23;;;;;;;14.78;9.53;;;;;;;20.29;60.91;101236.02;1777049;80;21643;-83
2021/09/03 10:40:10;;;;;;;16.00;9.78;;;;;;;20.20;61.11;101246.78;1777305;80;21035;-83
2021/09/03 10:42:45;;;;;;;17.55;9.25;;;;;;;20.12;61.19;101242.83;1777263;80;21047;-83
2021/09/03 10:45:35;;;;;;;13.13;9.70;;;;;;;20.01;61.14;101250.02;1776841;80;21563;-83
2021/09/03 10:48:14;;;;;;;13.05;9.55;;;;;;;19.93;61.56;101250.08;1776762;80;21744;-83
2021/09/03 10:50:55;;;;;;;13.65;9.00;;;;;;;19.96;61.73;101257.17;1776746;80;21530;-83
2021/09/03 10:53:27;;;;;;;15.53;10.35;;;;;;;19.99;61.45;101255.83;1748993;80;21106;-84
2021/09/03 10:56:05;;;;;;;13.75;9.15;;;;;;;19.95;61.37;101262.06;1777072;80;21177;-84
2021/09/03 10:58:54;;;;;;;14.45;8.43;;;;;;;19.96;61.45;101258.51;1777191;80;21038;-84
2021/09/03 11:01:28;;;;;;;12.88;9.05;;;;;;;20.00;61.49;101266.94;1779178;80;21761;-84
2021/09/03 11:04:07;;;;;;;18.85;14.38;;;;;;;20.07;61.43;101258.00;1779854;80;21112;-84
2021/09/03 11:06:40;;;;;;;16.23;11.18;;;;;;;20.10;61.28;101261.08;1780571;80;21070;-83
2021/09/03 11:09:20;;;;;;;16.30;9.60;;;;;;;20.25;61.28;101256.97;1780674;80;21062;-85
2021/09/03 11:11:59;;;;;;;15.05;8.95;;;;;;;20.47;61.16;101252.36;1780552;80;21564;-85
2021/09/03 11:14:30;;;;;;;17.50;10.38;;;;;;;20.71;60.51;101247.75;1779396;80;21719;-84
2021/09/03 11:17:12;;;;;;;12.95;9.23;;;;;;;20.82;60.25;101238.30;1780526;80;21058;-84
2021/09/03 11:19:45;;;;;;;15.25;10.43;;;;;;;20.97;59.72;101252.39;1780501;80;21015;-86
2021/09/03 11:22:17;;;;;;;16.45;12.53;;;;;;;20.98;59.40;101254.61;1780999;80;22894;-86
2021/09/03 11:24:52;;;;;;;18.23;9.83;;;;;;;20.88;59.08;101248.93;1780453;80;21007;-84